Aviation Digital Data Service (ADDS)

Output produced by METARs form (1425 UTC 20 July 2019)
found at http://www.aviationweather.gov/metar/data/
 
METAR text: FKKL 201300Z VRB06KT 9999 SCT030 33/23 Q1013
Conditions at: FKKL (MAROUA SALAK , CM) observed 1300 UTC 20 July 2019
Temperature: 33.0°C (91°F)
Dewpoint: 23.0°C (73°F) [RH = 56%]
Pressure (altimeter): 29.91 inches Hg (1013.0 mb)
Winds: variable direction winds at 7 MPH (6 knots; 3.1 m/s)
Visibility: 6 or more miles (10+ km)
Ceiling: at least 12,000 feet AGL
Clouds: scattered clouds at 3000 feet AGL
Weather: no significant weather observed at this time

METAR text: FKKL 201200Z VRB06KT 9999 FEW030 32/23 Q1014
Conditions at: FKKL (MAROUA SALAK , CM) observed 1200 UTC 20 July 2019
Temperature: 32.0°C (90°F)
Dewpoint: 23.0°C (73°F) [RH = 59%]
Pressure (altimeter): 29.94 inches Hg (1014.0 mb)
Winds: variable direction winds at 7 MPH (6 knots; 3.1 m/s)
Visibility: 6 or more miles (10+ km)
Ceiling: at least 12,000 feet AGL
Clouds: few clouds at 3000 feet AGL
Weather: no significant weather observed at this time

METAR text: FKKL 201100Z 26006KT 230V290 9999 FEW025 31/23 Q1015
Conditions at: FKKL (MAROUA SALAK , CM) observed 1100 UTC 20 July 2019
Temperature: 31.0°C (88°F)
Dewpoint: 23.0°C (73°F) [RH = 63%]
Pressure (altimeter): 29.97 inches Hg (1015.0 mb)
Winds: from the W (260 degrees) at 7 MPH (6 knots; 3.1 m/s)
Visibility: 6 or more miles (10+ km)
Ceiling: at least 12,000 feet AGL
Clouds: few clouds at 2500 feet AGL
Weather: no significant weather observed at this time

METAR text: FKKL 201000Z 27006KT 200V330 9999 FEW025 30/23 Q1015
Conditions at: FKKL (MAROUA SALAK , CM) observed 1000 UTC 20 July 2019
Temperature: 30.0°C (86°F)
Dewpoint: 23.0°C (73°F) [RH = 66%]
Pressure (altimeter): 29.97 inches Hg (1015.0 mb)
Winds: from the W (270 degrees) at 7 MPH (6 knots; 3.1 m/s)
Visibility: 6 or more miles (10+ km)
Ceiling: at least 12,000 feet AGL
Clouds: few clouds at 2500 feet AGL
Weather: no significant weather observed at this time

METAR text: FKKL 200900Z 26005KT 180V310 CAVOK 29/23 Q1016
Conditions at: FKKL (MAROUA SALAK , CM) observed 0900 UTC 20 July 2019
Temperature: 29.0°C (84°F)
Dewpoint: 23.0°C (73°F) [RH = 70%]
Pressure (altimeter): 30.00 inches Hg (1016.0 mb)
Winds: from the W (260 degrees) at 6 MPH (5 knots; 2.6 m/s)
Visibility: 6 or more miles (10+ km)
Ceiling: ceiling and visibility are OK
Clouds: unknown
Weather: no significant weather observed at this time

METAR text: FKKL 200800Z 27004KT 200V310 CAVOK 27/23 Q1016
Conditions at: FKKL (MAROUA SALAK , CM) observed 0800 UTC 20 July 2019
Temperature: 27.0°C (81°F)
Dewpoint: 23.0°C (73°F) [RH = 79%]
Pressure (altimeter): 30.00 inches Hg (1016.0 mb)
Winds: from the W (270 degrees) at 5 MPH (4 knots; 2.1 m/s)
Visibility: 6 or more miles (10+ km)
Ceiling: ceiling and visibility are OK
Clouds: unknown
Weather: no significant weather observed at this time

METAR text: FKKL 200700Z 26005KT CAVOK 25/23 Q1016
Conditions at: FKKL (MAROUA SALAK , CM) observed 0700 UTC 20 July 2019
Temperature: 25.0°C (77°F)
Dewpoint: 23.0°C (73°F) [RH = 89%]
Pressure (altimeter): 30.00 inches Hg (1016.0 mb)
Winds: from the W (260 degrees) at 6 MPH (5 knots; 2.6 m/s)
Visibility: 6 or more miles (10+ km)
Ceiling: ceiling and visibility are OK
Clouds: unknown
Weather: no significant weather observed at this time

METAR text: FKKL 191700Z 25006KT 9999 TS SCT040 FEW045CB 22/21 Q1012
Conditions at: FKKL (MAROUA SALAK , CM) observed 1700 UTC 19 July 2019
Temperature: 22.0°C (72°F)
Dewpoint: 21.0°C (70°F) [RH = 94%]
Pressure (altimeter): 29.88 inches Hg (1012.0 mb)
Winds: from the WSW (250 degrees) at 7 MPH (6 knots; 3.1 m/s)
Visibility: 6 or more miles (10+ km)
Ceiling: at least 12,000 feet AGL
Clouds: scattered clouds at 4000 feet AGL
few clouds at 4500 feet AGL
Weather: TS  (thunderstorm)

METAR text: FKKL 191600Z 27005KT 9999 -TSRA SCT040 SCT045CB 22/21 Q1012
Conditions at: FKKL (MAROUA SALAK , CM) observed 1600 UTC 19 July 2019
Temperature: 22.0°C (72°F)
Dewpoint: 21.0°C (70°F) [RH = 94%]
Pressure (altimeter): 29.88 inches Hg (1012.0 mb)
Winds: from the W (270 degrees) at 6 MPH (5 knots; 2.6 m/s)
Visibility: 6 or more miles (10+ km)
Ceiling: at least 12,000 feet AGL
Clouds: scattered clouds at 4000 feet AGL
scattered clouds at 4500 feet AGL
Weather: -TSRA  (light rain associated with thunderstorm(s))

METAR text: FKKL 191500Z 02021G33KT 9999 -TSRA BKN040 SCT045CB 22/20 Q1012
Conditions at: FKKL (MAROUA SALAK , CM) observed 1500 UTC 19 July 2019
Temperature: 22.0°C (72°F)
Dewpoint: 20.0°C (68°F) [RH = 88%]
Pressure (altimeter): 29.88 inches Hg (1012.0 mb)
Winds: from the NNE (20 degrees) at 24 MPH (21 knots; 10.8 m/s)
gusting to 38 MPH (33 knots; 17.0 m/s)
Visibility: 6 or more miles (10+ km)
Ceiling: 4000 feet AGL
Clouds: broken clouds at 4000 feet AGL
scattered clouds at 4500 feet AGL
Weather: -TSRA  (light rain associated with thunderstorm(s))

METAR text: FKKL 191400Z VRB04KT 9999 TS SCT040 FEW045CB 32/24 Q1012
Conditions at: FKKL (MAROUA SALAK , CM) observed 1400 UTC 19 July 2019
Temperature: 32.0°C (90°F)
Dewpoint: 24.0°C (75°F) [RH = 63%]
Pressure (altimeter): 29.88 inches Hg (1012.0 mb)
Winds: variable direction winds at 5 MPH (4 knots; 2.1 m/s)
Visibility: 6 or more miles (10+ km)
Ceiling: at least 12,000 feet AGL
Clouds: scattered clouds at 4000 feet AGL
few clouds at 4500 feet AGL
Weather: TS  (thunderstorm)

METAR text: FKKL 191200Z 25008KT 200V290 9999 FEW040 31/24 Q1013
Conditions at: FKKL (MAROUA SALAK , CM) observed 1200 UTC 19 July 2019
Temperature: 31.0°C (88°F)
Dewpoint: 24.0°C (75°F) [RH = 66%]
Pressure (altimeter): 29.91 inches Hg (1013.0 mb)
Winds: from the WSW (250 degrees) at 9 MPH (8 knots; 4.1 m/s)
Visibility: 6 or more miles (10+ km)
Ceiling: at least 12,000 feet AGL
Clouds: few clouds at 4000 feet AGL
Weather: no significant weather observed at this time

METAR text: FKKL 191100Z 21008KT 180V260 9999 FEW040 30/23 Q1014
Conditions at: FKKL (MAROUA SALAK , CM) observed 1100 UTC 19 July 2019
Temperature: 30.0°C (86°F)
Dewpoint: 23.0°C (73°F) [RH = 66%]
Pressure (altimeter): 29.94 inches Hg (1014.0 mb)
Winds: from the SSW (210 degrees) at 9 MPH (8 knots; 4.1 m/s)
Visibility: 6 or more miles (10+ km)
Ceiling: at least 12,000 feet AGL
Clouds: few clouds at 4000 feet AGL
Weather: no significant weather observed at this time

METAR text: FKKL 191000Z 25007KT 210V290 9999 FEW040 29/23 Q1014
Conditions at: FKKL (MAROUA SALAK , CM) observed 1000 UTC 19 July 2019
Temperature: 29.0°C (84°F)
Dewpoint: 23.0°C (73°F) [RH = 70%]
Pressure (altimeter): 29.94 inches Hg (1014.0 mb)
Winds: from the WSW (250 degrees) at 8 MPH (7 knots; 3.6 m/s)
Visibility: 6 or more miles (10+ km)
Ceiling: at least 12,000 feet AGL
Clouds: few clouds at 4000 feet AGL
Weather: no significant weather observed at this time

METAR text: FKKL 190900Z 27007KT 230V320 CAVOK 27/23 Q1014
Conditions at: FKKL (MAROUA SALAK , CM) observed 0900 UTC 19 July 2019
Temperature: 27.0°C (81°F)
Dewpoint: 23.0°C (73°F) [RH = 79%]
Pressure (altimeter): 29.94 inches Hg (1014.0 mb)
Winds: from the W (270 degrees) at 8 MPH (7 knots; 3.6 m/s)
Visibility: 6 or more miles (10+ km)
Ceiling: ceiling and visibility are OK
Clouds: unknown
Weather: no significant weather observed at this time

METAR text: FKKL 190700Z 22005KT 200V260 9999 SCT009 23/22 Q1015
Conditions at: FKKL (MAROUA SALAK , CM) observed 0700 UTC 19 July 2019
Temperature: 23.0°C (73°F)
Dewpoint: 22.0°C (72°F) [RH = 94%]
Pressure (altimeter): 29.97 inches Hg (1015.0 mb)
Winds: from the SW (220 degrees) at 6 MPH (5 knots; 2.6 m/s)
Visibility: 6 or more miles (10+ km)
Ceiling: at least 12,000 feet AGL
Clouds: scattered clouds at 900 feet AGL
Weather: no significant weather observed at this time

Forecast for: FKKL (MAROUA SALAK , CM)
Text: TAF FKKL 201100Z 2012/2024 25010KT 9999 FEW025
Forecast period: 1200 UTC 20 July 2019 to 0000 UTC 21 July 2019
Forecast type: FROM: standard forecast or significant change
Winds: from the WSW (250 degrees) at 12 MPH (10 knots; 5.1 m/s)
Visibility: 6 or more miles 10+ km)
Ceiling: at least 12,000 feet AGL
Clouds: few clouds at 2500 feet AGL
Weather: no significant weather forecast for this period
Text: PROB30 2016/2018 TS FEW020 FEW030CB
Forecast period: 1600 to 1800 UTC 20 July 2019
Forecast type: PROBABLE: 30 percent likelihood of the following during this time
Visibility: missing
Ceiling: at least 12,000 feet AGL
Clouds: few clouds at 2000 feet AGL
few clouds at 3000 feet AGL
Weather: TS  (thunderstorm)